Aviation Digital Data Service (ADDS)

Output produced by TAFs form (0435 UTC 22 September 2017)
found at http://www.aviationweather.gov/adds/tafs/
 
METAR text: RJNG 220215Z VRB02KT 9999 FEW030 BKN120 BKN220 22/16 Q1015 RMK 1CU030 5AC120 A3000
Conditions at: RJNG (GIFU (JASDF) , JP) observed 0215 UTC 22 September 2017
Temperature: 22.0°C (72°F)
Dewpoint: 16.0°C (61°F) [RH = 69%]
Pressure (altimeter): 29.97 inches Hg (1015.0 mb)
Winds: variable direction winds at 2 MPH (2 knots; 1.0 m/s)
Visibility: 6 or more miles (10+ km)
Ceiling: 12000 feet AGL
Clouds: few clouds at 3000 feet AGL
broken clouds at 12000 feet AGL
broken clouds at 22000 feet AGL
Weather: no significant weather observed at this time